sensor_id;sensor_type;location;lat;lon;timestamp;pressure;altitude;pressure_sealevel;temperature;humidity
10348;BME280;5220;43.192;23.284;2023-04-09T00:00:37;97313.16;;;9.12;100.00
10348;BME280;5220;43.192;23.284;2023-04-09T00:03:04;97305.56;;;9.09;100.00
10348;BME280;5220;43.192;23.284;2023-04-09T00:05:30;97305.63;;;9.07;100.00
10348;BME280;5220;43.192;23.284;2023-04-09T00:07:58;97317.75;;;9.07;100.00
10348;BME280;5220;43.192;23.284;2023-04-09T00:10:25;97325.66;;;9.05;100.00
10348;BME280;5220;43.192;23.284;2023-04-09T00:12:52;97322.22;;;9.05;100.00
10348;BME280;5220;43.192;23.284;2023-04-09T00:15:19;97325.75;;;9.04;100.00
10348;BME280;5220;43.192;23.284;2023-04-09T00:17:45;97316.66;;;8.97;100.00
10348;BME280;5220;43.192;23.284;2023-04-09T00:20:12;97323.88;;;8.92;100.00
10348;BME280;5220;43.192;23.284;2023-04-09T00:22:39;97331.03;;;8.88;100.00
10348;BME280;5220;43.192;23.284;2023-04-09T00:25:07;97325.28;;;8.83;100.00
10348;BME280;5220;43.192;23.284;2023-04-09T00:27:34;97332.41;;;8.80;100.00
10348;BME280;5220;43.192;23.284;2023-04-09T00:30:01;97335.28;;;8.75;100.00
10348;BME280;5220;43.192;23.284;2023-04-09T00:32:28;97327.66;;;8.72;100.00
10348;BME280;5220;43.192;23.284;2023-04-09T00:34:54;97325.25;;;8.69;100.00
10348;BME280;5220;43.192;23.284;2023-04-09T00:37:21;97338.22;;;8.69;100.00
10348;BME280;5220;43.192;23.284;2023-04-09T00:39:48;97335.81;;;8.66;100.00
10348;BME280;5220;43.192;23.284;2023-04-09T00:42:16;97335.94;;;8.64;100.00
10348;BME280;5220;43.192;23.284;2023-04-09T00:44:43;97344.63;;;8.63;100.00
10348;BME280;5220;43.192;23.284;2023-04-09T00:47:09;97345.53;;;8.62;100.00
10348;BME280;5220;43.192;23.284;2023-04-09T00:49:36;97343.84;;;8.47;100.00
10348;BME280;5220;43.192;23.284;2023-04-09T00:52:03;97339.13;;;8.40;100.00
10348;BME280;5220;43.192;23.284;2023-04-09T00:54:31;97342.09;;;8.48;100.00
10348;BME280;5220;43.192;23.284;2023-04-09T00:56:58;97333.22;;;8.52;100.00
10348;BME280;5220;43.192;23.284;2023-04-09T00:59:26;97345.09;;;8.56;100.00
10348;BME280;5220;43.192;23.284;2023-04-09T01:01:54;97345.72;;;8.59;100.00
10348;BME280;5220;43.192;23.284;2023-04-09T01:04:21;97344.91;;;8.59;100.00
10348;BME280;5220;43.192;23.284;2023-04-09T01:06:51;97354.25;;;8.61;100.00
10348;BME280;5220;43.192;23.284;2023-04-09T01:09:23;97345.72;;;8.59;100.00
10348;BME280;5220;43.192;23.284;2023-04-09T01:12:00;97353.50;;;8.59;100.00
10348;BME280;5220;43.192;23.284;2023-04-09T01:14:35;97349.31;;;8.57;100.00
10348;BME280;5220;43.192;23.284;2023-04-09T01:17:04;97356.25;;;8.56;100.00
10348;BME280;5220;43.192;23.284;2023-04-09T01:19:38;97351.00;;;8.58;100.00
10348;BME280;5220;43.192;23.284;2023-04-09T01:22:13;97345.16;;;8.54;100.00
10348;BME280;5220;43.192;23.284;2023-04-09T01:24:56;97350.16;;;8.57;100.00
10348;BME280;5220;43.192;23.284;2023-04-09T01:27:43;97351.84;;;8.58;100.00
10348;BME280;5220;43.192;23.284;2023-04-09T01:30:13;97352.75;;;8.57;100.00
10348;BME280;5220;43.192;23.284;2023-04-09T01:32:42;97351.75;;;8.60;100.00
10348;BME280;5220;43.192;23.284;2023-04-09T01:35:09;97350.72;;;8.62;100.00
10348;BME280;5220;43.192;23.284;2023-04-09T01:37:36;97347.38;;;8.60;100.00
10348;BME280;5220;43.192;23.284;2023-04-09T01:40:06;97354.25;;;8.61;100.00
10348;BME280;5220;43.192;23.284;2023-04-09T01:42:34;97353.31;;;8.62;100.00
10348;BME280;5220;43.192;23.284;2023-04-09T01:45:03;97351.56;;;8.63;100.00
10348;BME280;5220;43.192;23.284;2023-04-09T01:47:32;97352.41;;;8.63;100.00
10348;BME280;5220;43.192;23.284;2023-04-09T01:50:00;97348.13;;;8.62;100.00
10348;BME280;5220;43.192;23.284;2023-04-09T01:52:28;97353.25;;;8.64;100.00
10348;BME280;5220;43.192;23.284;2023-04-09T01:54:55;97354.91;;;8.65;100.00
10348;BME280;5220;43.192;23.284;2023-04-09T01:57:22;97356.75;;;8.63;100.00
10348;BME280;5220;43.192;23.284;2023-04-09T01:59:48;97357.50;;;8.65;100.00
10348;BME280;5220;43.192;23.284;2023-04-09T02:02:17;97349.91;;;8.62;100.00
10348;BME280;5220;43.192;23.284;2023-04-09T02:04:48;97350.72;;;8.62;100.00
10348;BME280;5220;43.192;23.284;2023-04-09T02:07:23;97348.88;;;8.64;100.00
10348;BME280;5220;43.192;23.284;2023-04-09T02:09:53;97341.97;;;8.35;100.00
10348;BME280;5220;43.192;23.284;2023-04-09T02:12:20;97352.88;;;8.56;100.00
10348;BME280;5220;43.192;23.284;2023-04-09T02:14:50;97340.53;;;8.59;100.00
10348;BME280;5220;43.192;23.284;2023-04-09T02:17:17;97340.34;;;8.62;100.00
10348;BME280;5220;43.192;23.284;2023-04-09T02:19:45;97348.72;;;8.68;100.00
10348;BME280;5220;43.192;23.284;2023-04-09T02:22:14;97349.44;;;8.70;100.00
10348;BME280;5220;43.192;23.284;2023-04-09T02:24:41;97339.19;;;8.68;100.00
10348;BME280;5220;43.192;23.284;2023-04-09T02:27:08;97340.81;;;8.69;100.00
10348;BME280;5220;43.192;23.284;2023-04-09T02:29:35;97346.66;;;8.73;100.00
10348;BME280;5220;43.192;23.284;2023-04-09T02:32:01;97344.84;;;8.75;100.00
10348;BME280;5220;43.192;23.284;2023-04-09T02:34:28;97336.09;;;8.76;100.00
10348;BME280;5220;43.192;23.284;2023-04-09T02:36:55;97343.72;;;8.79;100.00
10348;BME280;5220;43.192;23.284;2023-04-09T02:39:23;97344.66;;;8.78;100.00
10348;BME280;5220;43.192;23.284;2023-04-09T02:41:50;97342.78;;;8.80;100.00
10348;BME280;5220;43.192;23.284;2023-04-09T02:44:16;97349.66;;;8.81;100.00
10348;BME280;5220;43.192;23.284;2023-04-09T02:46:44;97352.16;;;8.82;100.00
10348;BME280;5220;43.192;23.284;2023-04-09T02:49:11;97346.88;;;8.84;100.00
10348;BME280;5220;43.192;23.284;2023-04-09T02:51:38;97341.50;;;8.87;100.00
10348;BME280;5220;43.192;23.284;2023-04-09T02:54:05;97338.06;;;8.86;100.00
10348;BME280;5220;43.192;23.284;2023-04-09T02:56:33;97339.81;;;8.86;100.00
10348;BME280;5220;43.192;23.284;2023-04-09T02:58:59;97333.72;;;8.87;100.00
10348;BME280;5220;43.192;23.284;2023-04-09T03:01:26;97325.94;;;8.87;100.00
10348;BME280;5220;43.192;23.284;2023-04-09T03:03:53;97324.25;;;8.86;100.00
10348;BME280;5220;43.192;23.284;2023-04-09T03:06:19;97332.78;;;8.88;100.00
10348;BME280;5220;43.192;23.284;2023-04-09T03:08:46;97329.38;;;8.87;100.00
10348;BME280;5220;43.192;23.284;2023-04-09T03:11:13;97334.09;;;8.81;100.00
10348;BME280;5220;43.192;23.284;2023-04-09T03:13:41;97340.28;;;8.78;100.00
10348;BME280;5220;43.192;23.284;2023-04-09T03:16:08;97337.97;;;8.74;100.00
10348;BME280;5220;43.192;23.284;2023-04-09T03:18:35;97330.66;;;8.80;100.00
10348;BME280;5220;43.192;23.284;2023-04-09T03:21:04;97333.72;;;8.87;100.00
10348;BME280;5220;43.192;23.284;2023-04-09T03:23:31;97336.03;;;8.91;100.00
10348;BME280;5220;43.192;23.284;2023-04-09T03:26:00;97333.16;;;8.82;100.00
10348;BME280;5220;43.192;23.284;2023-04-09T03:28:27;97324.19;;;8.87;100.00
10348;BME280;5220;43.192;23.284;2023-04-09T03:30:55;97331.38;;;8.82;100.00
10348;BME280;5220;43.192;23.284;2023-04-09T03:33:22;97330.19;;;8.88;100.00
10348;BME280;5220;43.192;23.284;2023-04-09T03:35:49;97338.72;;;8.90;100.00
10348;BME280;5220;43.192;23.284;2023-04-09T03:38:16;97337.78;;;8.91;100.00
10348;BME280;5220;43.192;23.284;2023-04-09T03:40:43;97334.19;;;8.93;100.00
10348;BME280;5220;43.192;23.284;2023-04-09T03:43:10;97339.28;;;8.95;100.00
10348;BME280;5220;43.192;23.284;2023-04-09T03:45:37;97335.75;;;8.96;100.00
10348;BME280;5220;43.192;23.284;2023-04-09T03:48:05;97328.81;;;8.96;100.00
10348;BME280;5220;43.192;23.284;2023-04-09T03:50:37;97336.50;;;8.98;100.00
10348;BME280;5220;43.192;23.284;2023-04-09T03:53:03;97339.00;;;8.99;100.00
10348;BME280;5220;43.192;23.284;2023-04-09T03:55:30;97328.63;;;8.99;100.00
10348;BME280;5220;43.192;23.284;2023-04-09T03:57:57;97332.16;;;8.98;100.00
10348;BME280;5220;43.192;23.284;2023-04-09T04:00:24;97340.75;;;8.85;100.00
10348;BME280;5220;43.192;23.284;2023-04-09T04:02:50;97334.50;;;8.45;100.00
10348;BME280;5220;43.192;23.284;2023-04-09T04:05:21;97329.34;;;8.59;100.00
10348;BME280;5220;43.192;23.284;2023-04-09T04:07:48;97342.94;;;8.62;100.00
10348;BME280;5220;43.192;23.284;2023-04-09T04:10:15;97343.03;;;8.61;100.00
10348;BME280;5220;43.192;23.284;2023-04-09T04:12:42;97338.28;;;8.39;100.00
10348;BME280;5220;43.192;23.284;2023-04-09T04:15:09;97345.09;;;8.56;100.00
10348;BME280;5220;43.192;23.284;2023-04-09T04:17:35;97333.34;;;8.64;100.00
10348;BME280;5220;43.192;23.284;2023-04-09T04:20:02;97342.31;;;8.73;100.00
10348;BME280;5220;43.192;23.284;2023-04-09T04:22:32;97343.81;;;8.77;100.00
10348;BME280;5220;43.192;23.284;2023-04-09T04:24:59;97340.00;;;8.83;100.00
10348;BME280;5220;43.192;23.284;2023-04-09T04:27:26;97341.59;;;8.85;100.00
10348;BME280;5220;43.192;23.284;2023-04-09T04:29:52;97349.19;;;8.88;100.00
10348;BME280;5220;43.192;23.284;2023-04-09T04:32:19;97348.25;;;8.89;100.00
10348;BME280;5220;43.192;23.284;2023-04-09T04:34:47;97344.47;;;8.95;100.00
10348;BME280;5220;43.192;23.284;2023-04-09T04:37:14;97354.75;;;8.96;100.00
10348;BME280;5220;43.192;23.284;2023-04-09T04:39:45;97356.34;;;8.99;100.00
10348;BME280;5220;43.192;23.284;2023-04-09T04:42:13;97354.41;;;9.02;100.00
10348;BME280;5220;43.192;23.284;2023-04-09T04:44:43;97358.75;;;9.02;100.00
10348;BME280;5220;43.192;23.284;2023-04-09T04:47:11;97359.66;;;8.87;100.00
10348;BME280;5220;43.192;23.284;2023-04-09T04:49:41;97354.75;;;8.68;100.00
10348;BME280;5220;43.192;23.284;2023-04-09T04:52:09;97359.75;;;8.85;100.00
10348;BME280;5220;43.192;23.284;2023-04-09T04:54:38;97357.97;;;8.72;100.00
10348;BME280;5220;43.192;23.284;2023-04-09T04:57:08;97361.31;;;8.88;100.00
10348;BME280;5220;43.192;23.284;2023-04-09T04:59:37;97354.00;;;8.94;100.00
10348;BME280;5220;43.192;23.284;2023-04-09T05:02:06;97351.97;;;8.99;100.00
10348;BME280;5220;43.192;23.284;2023-04-09T05:04:35;97357.63;;;9.06;100.00
10348;BME280;5220;43.192;23.284;2023-04-09T05:07:05;97356.63;;;9.08;100.00
10348;BME280;5220;43.192;23.284;2023-04-09T05:09:35;97357.34;;;9.10;100.00
10348;BME280;5220;43.192;23.284;2023-04-09T05:12:05;97358.00;;;9.14;100.00
10348;BME280;5220;43.192;23.284;2023-04-09T05:14:38;97360.41;;;9.17;100.00
10348;BME280;5220;43.192;23.284;2023-04-09T05:17:08;97356.50;;;9.10;100.00
10348;BME280;5220;43.192;23.284;2023-04-09T05:19:39;97361.44;;;9.14;100.00
10348;BME280;5220;43.192;23.284;2023-04-09T05:22:10;97363.19;;;9.14;100.00
10348;BME280;5220;43.192;23.284;2023-04-09T05:24:41;97366.63;;;9.14;100.00
10348;BME280;5220;43.192;23.284;2023-04-09T05:27:11;97366.81;;;9.11;100.00
10348;BME280;5220;43.192;23.284;2023-04-09T05:29:43;97374.31;;;9.02;100.00
10348;BME280;5220;43.192;23.284;2023-04-09T05:32:13;97369.47;;;9.10;100.00
10348;BME280;5220;43.192;23.284;2023-04-09T05:34:43;97375.06;;;9.18;100.00
10348;BME280;5220;43.192;23.284;2023-04-09T05:37:14;97368.28;;;9.15;100.00
10348;BME280;5220;43.192;23.284;2023-04-09T05:39:43;97368.19;;;8.89;100.00
10348;BME280;5220;43.192;23.284;2023-04-09T05:42:13;97373.22;;;9.06;100.00
10348;BME280;5220;43.192;23.284;2023-04-09T05:44:46;97374.41;;;9.14;100.00
10348;BME280;5220;43.192;23.284;2023-04-09T05:47:18;97372.25;;;9.07;100.00
10348;BME280;5220;43.192;23.284;2023-04-09T05:49:49;97370.06;;;9.15;100.00
10348;BME280;5220;43.192;23.284;2023-04-09T05:52:18;97361.72;;;9.24;100.00
10348;BME280;5220;43.192;23.284;2023-04-09T05:54:49;97365.31;;;9.36;100.00
10348;BME280;5220;43.192;23.284;2023-04-09T05:57:20;97371.03;;;9.41;100.00
10348;BME280;5220;43.192;23.284;2023-04-09T05:59:52;97374.28;;;9.44;100.00
10348;BME280;5220;43.192;23.284;2023-04-09T06:02:23;97368.91;;;9.47;100.00
10348;BME280;5220;43.192;23.284;2023-04-09T06:04:54;97369.88;;;9.18;100.00
10348;BME280;5220;43.192;23.284;2023-04-09T06:07:24;97377.63;;;9.32;100.00
10348;BME280;5220;43.192;23.284;2023-04-09T06:09:54;97371.50;;;9.47;100.00
10348;BME280;5220;43.192;23.284;2023-04-09T06:12:23;97380.41;;;9.57;100.00
10348;BME280;5220;43.192;23.284;2023-04-09T06:14:55;97378.53;;;9.59;100.00
10348;BME280;5220;43.192;23.284;2023-04-09T06:17:22;97374.75;;;9.65;100.00
10348;BME280;5220;43.192;23.284;2023-04-09T06:19:52;97376.84;;;9.72;100.00
10348;BME280;5220;43.192;23.284;2023-04-09T06:22:19;97380.72;;;9.80;100.00
10348;BME280;5220;43.192;23.284;2023-04-09T06:24:46;97376.44;;;9.79;100.00
10348;BME280;5220;43.192;23.284;2023-04-09T06:27:13;97392.09;;;9.91;100.00
10348;BME280;5220;43.192;23.284;2023-04-09T06:29:42;97385.47;;;10.00;100.00
10348;BME280;5220;43.192;23.284;2023-04-09T06:32:12;97383.97;;;10.10;100.00
10348;BME280;5220;43.192;23.284;2023-04-09T06:34:40;97384.97;;;10.21;100.00
10348;BME280;5220;43.192;23.284;2023-04-09T06:37:09;97385.00;;;10.34;100.00
10348;BME280;5220;43.192;23.284;2023-04-09T06:39:37;97394.00;;;10.43;100.00
10348;BME280;5220;43.192;23.284;2023-04-09T06:42:04;97397.25;;;10.19;100.00
10348;BME280;5220;43.192;23.284;2023-04-09T06:44:32;97404.41;;;10.16;100.00
10348;BME280;5220;43.192;23.284;2023-04-09T06:46:59;97388.59;;;10.46;100.00
10348;BME280;5220;43.192;23.284;2023-04-09T06:49:27;97390.97;;;10.36;100.00
10348;BME280;5220;43.192;23.284;2023-04-09T06:51:54;97388.31;;;10.63;100.00
10348;BME280;5220;43.192;23.284;2023-04-09T06:54:21;97387.63;;;10.86;100.00
10348;BME280;5220;43.192;23.284;2023-04-09T06:56:48;97386.22;;;10.80;100.00
10348;BME280;5220;43.192;23.284;2023-04-09T06:59:14;97391.38;;;10.95;100.00
10348;BME280;5220;43.192;23.284;2023-04-09T07:01:41;97397.88;;;10.75;100.00
10348;BME280;5220;43.192;23.284;2023-04-09T07:04:08;97401.16;;;11.04;100.00
10348;BME280;5220;43.192;23.284;2023-04-09T07:06:36;97402.00;;;11.17;100.00
10348;BME280;5220;43.192;23.284;2023-04-09T07:09:03;97398.97;;;11.23;100.00
10348;BME280;5220;43.192;23.284;2023-04-09T07:11:29;97401.88;;;11.31;100.00
10348;BME280;5220;43.192;23.284;2023-04-09T07:13:57;97392.09;;;11.22;100.00
10348;BME280;5220;43.192;23.284;2023-04-09T07:16:24;97384.28;;;11.09;100.00
10348;BME280;5220;43.192;23.284;2023-04-09T07:18:51;97386.66;;;11.25;100.00
10348;BME280;5220;43.192;23.284;2023-04-09T07:21:17;97394.69;;;10.97;100.00
10348;BME280;5220;43.192;23.284;2023-04-09T07:23:46;97392.09;;;11.22;100.00
10348;BME280;5220;43.192;23.284;2023-04-09T07:26:12;97391.16;;;11.36;100.00
10348;BME280;5220;43.192;23.284;2023-04-09T07:28:39;97393.41;;;11.40;100.00
10348;BME280;5220;43.192;23.284;2023-04-09T07:31:06;97405.72;;;11.38;100.00
10348;BME280;5220;43.192;23.284;2023-04-09T07:33:34;97398.44;;;11.30;100.00
10348;BME280;5220;43.192;23.284;2023-04-09T07:36:01;97398.81;;;10.61;100.00
10348;BME280;5220;43.192;23.284;2023-04-09T07:38:28;97405.81;;;10.73;100.00
10348;BME280;5220;43.192;23.284;2023-04-09T07:40:56;97408.31;;;10.75;100.00
10348;BME280;5220;43.192;23.284;2023-04-09T07:43:23;97414.22;;;10.64;100.00
10348;BME280;5220;43.192;23.284;2023-04-09T07:45:50;97402.09;;;10.38;100.00
10348;BME280;5220;43.192;23.284;2023-04-09T07:48:16;97414.66;;;10.32;100.00
10348;BME280;5220;43.192;23.284;2023-04-09T07:50:43;97410.59;;;10.40;100.00
10348;BME280;5220;43.192;23.284;2023-04-09T07:53:10;97419.97;;;10.30;100.00
10348;BME280;5220;43.192;23.284;2023-04-09T07:55:37;97416.00;;;10.10;100.00
10348;BME280;5220;43.192;23.284;2023-04-09T07:58:05;97415.47;;;10.05;100.00
10348;BME280;5220;43.192;23.284;2023-04-09T08:00:32;97412.88;;;9.91;100.00
10348;BME280;5220;43.192;23.284;2023-04-09T08:02:58;97417.81;;;9.82;100.00
10348;BME280;5220;43.192;23.284;2023-04-09T08:05:26;97418.66;;;9.82;100.00
10348;BME280;5220;43.192;23.284;2023-04-09T08:07:53;97420.59;;;9.93;100.00
10348;BME280;5220;43.192;23.284;2023-04-09T08:10:19;97413.59;;;9.66;100.00
10348;BME280;5220;43.192;23.284;2023-04-09T08:12:47;97426.50;;;9.40;100.00
10348;BME280;5220;43.192;23.284;2023-04-09T08:15:15;97420.38;;;9.55;100.00
10348;BME280;5220;43.192;23.284;2023-04-09T08:17:42;97422.50;;;9.48;100.00
10348;BME280;5220;43.192;23.284;2023-04-09T08:20:10;97422.59;;;9.61;100.00
10348;BME280;5220;43.192;23.284;2023-04-09T08:22:37;97419.78;;;9.78;100.00
10348;BME280;5220;43.192;23.284;2023-04-09T08:25:06;97417.44;;;9.88;100.00
10348;BME280;5220;43.192;23.284;2023-04-09T08:27:33;97428.00;;;9.99;100.00
10348;BME280;5220;43.192;23.284;2023-04-09T08:30:00;97427.72;;;10.03;100.00
10348;BME280;5220;43.192;23.284;2023-04-09T08:32:29;97431.59;;;10.10;100.00
10348;BME280;5220;43.192;23.284;2023-04-09T08:34:56;97438.28;;;10.00;100.00
10348;BME280;5220;43.192;23.284;2023-04-09T08:37:22;97430.75;;;10.10;100.00
10348;BME280;5220;43.192;23.284;2023-04-09T08:39:49;97437.31;;;9.74;100.00
10348;BME280;5220;43.192;23.284;2023-04-09T08:42:16;97438.34;;;9.72;100.00
10348;BME280;5220;43.192;23.284;2023-04-09T08:44:45;97430.75;;;9.83;100.00
10348;BME280;5220;43.192;23.284;2023-04-09T08:47:12;97440.28;;;9.83;100.00
10348;BME280;5220;43.192;23.284;2023-04-09T08:49:40;97433.34;;;9.83;100.00
10348;BME280;5220;43.192;23.284;2023-04-09T08:52:07;97442.19;;;9.93;100.00
10348;BME280;5220;43.192;23.284;2023-04-09T08:54:34;97437.31;;;9.74;100.00
10348;BME280;5220;43.192;23.284;2023-04-09T08:57:03;97433.88;;;9.88;100.00
10348;BME280;5220;43.192;23.284;2023-04-09T08:59:30;97433.16;;;9.86;100.00
10348;BME280;5220;43.192;23.284;2023-04-09T09:02:08;97438.72;;;9.80;100.00
10348;BME280;5220;43.192;23.284;2023-04-09T09:04:46;97441.63;;;9.61;100.00
10348;BME280;5220;43.192;23.284;2023-04-09T09:07:13;97440.59;;;9.50;100.00
10348;BME280;5220;43.192;23.284;2023-04-09T09:09:50;97446.63;;;9.50;100.00
10348;BME280;5220;43.192;23.284;2023-04-09T09:12:36;97434.28;;;9.54;100.00
10348;BME280;5220;43.192;23.284;2023-04-09T09:15:04;97434.81;;;9.59;100.00
10348;BME280;5220;43.192;23.284;2023-04-09T09:17:33;97438.53;;;9.41;100.00
10348;BME280;5220;43.192;23.284;2023-04-09T09:20:17;97432.25;;;9.45;100.00
10348;BME280;5220;43.192;23.284;2023-04-09T09:22:48;97433.34;;;9.41;100.00
10348;BME280;5220;43.192;23.284;2023-04-09T09:25:16;97433.94;;;9.46;100.00
10348;BME280;5220;43.192;23.284;2023-04-09T09:27:47;97434.66;;;9.62;100.00
10348;BME280;5220;43.192;23.284;2023-04-09T09:30:20;97438.25;;;9.73;100.00
10348;BME280;5220;43.192;23.284;2023-04-09T09:32:50;97437.31;;;9.74;100.00
10348;BME280;5220;43.192;23.284;2023-04-09T09:35:19;97437.75;;;9.95;100.00
10348;BME280;5220;43.192;23.284;2023-04-09T09:37:46;97431.06;;;10.05;100.00
10348;BME280;5220;43.192;23.284;2023-04-09T09:40:25;97432.44;;;10.11;100.00
10348;BME280;5220;43.192;23.284;2023-04-09T09:42:54;97433.09;;;10.00;100.00
10348;BME280;5220;43.192;23.284;2023-04-09T09:45:21;97433.00;;;10.16;100.00
10348;BME280;5220;43.192;23.284;2023-04-09T09:47:48;97431.56;;;10.24;100.00
10348;BME280;5220;43.192;23.284;2023-04-09T09:50:15;97425.00;;;10.19;100.00
10348;BME280;5220;43.192;23.284;2023-04-09T09:52:45;97428.72;;;10.15;100.00
10348;BME280;5220;43.192;23.284;2023-04-09T09:55:13;97425.94;;;10.18;100.00
10348;BME280;5220;43.192;23.284;2023-04-09T09:57:41;97424.81;;;10.22;100.00
10348;BME280;5220;43.192;23.284;2023-04-09T10:00:11;97425.13;;;10.17;100.00
10348;BME280;5220;43.192;23.284;2023-04-09T10:02:42;97419.91;;;10.17;100.00
10348;BME280;5220;43.192;23.284;2023-04-09T10:05:14;97416.91;;;10.23;100.00
10348;BME280;5220;43.192;23.284;2023-04-09T10:07:41;97418.16;;;10.31;100.00
10348;BME280;5220;43.192;23.284;2023-04-09T10:10:10;97412.03;;;10.32;100.00
10348;BME280;5220;43.192;23.284;2023-04-09T10:12:37;97412.56;;;10.24;100.00
10348;BME280;5220;43.192;23.284;2023-04-09T10:15:07;97415.47;;;10.32;100.00
10348;BME280;5220;43.192;23.284;2023-04-09T10:17:34;97423.72;;;10.39;100.00
10348;BME280;5220;43.192;23.284;2023-04-09T10:20:09;97419.25;;;10.41;100.00
10348;BME280;5220;43.192;23.284;2023-04-09T10:22:36;97426.84;;;10.44;100.00
10348;BME280;5220;43.192;23.284;2023-04-09T10:25:04;97428.28;;;9.94;100.00
10348;BME280;5220;43.192;23.284;2023-04-09T10:27:33;97417.75;;;10.10;100.00
10348;BME280;5220;43.192;23.284;2023-04-09T10:30:00;97421.09;;;10.12;100.00
10348;BME280;5220;43.192;23.284;2023-04-09T10:32:33;97421.06;;;9.99;100.00
10348;BME280;5220;43.192;23.284;2023-04-09T10:35:02;97422.59;;;10.16;100.00
10348;BME280;5220;43.192;23.284;2023-04-09T10:37:29;97413.75;;;10.18;100.00
10348;BME280;5220;43.192;23.284;2023-04-09T10:39:56;97419.13;;;9.89;100.00
10348;BME280;5220;43.192;23.284;2023-04-09T10:42:28;97414.91;;;10.00;100.00
10348;BME280;5220;43.192;23.284;2023-04-09T10:45:06;97411.63;;;10.11;100.00
10348;BME280;5220;43.192;23.284;2023-04-09T10:47:35;97401.13;;;10.12;100.00
10348;BME280;5220;43.192;23.284;2023-04-09T10:50:19;97412.25;;;10.29;100.00
10348;BME280;5220;43.192;23.284;2023-04-09T10:52:50;97407.50;;;9.94;100.00
10348;BME280;5220;43.192;23.284;2023-04-09T10:55:32;97406.28;;;10.14;100.00
10348;BME280;5220;43.192;23.284;2023-04-09T10:57:59;97404.84;;;10.22;100.00
10348;BME280;5220;43.192;23.284;2023-04-09T11:00:28;97413.22;;;10.40;100.00
10348;BME280;5220;43.192;23.284;2023-04-09T11:03:13;97404.53;;;10.54;100.00
10348;BME280;5220;43.192;23.284;2023-04-09T11:05:46;97409.44;;;10.58;100.00
10348;BME280;5220;43.192;23.284;2023-04-09T11:08:15;97408.84;;;10.41;100.00
10348;BME280;5220;43.192;23.284;2023-04-09T11:10:43;97410.97;;;10.48;100.00
10348;BME280;5220;43.192;23.284;2023-04-09T11:13:10;97411.69;;;10.50;100.00
10348;BME280;5220;43.192;23.284;2023-04-09T11:15:39;97406.06;;;10.56;100.00
10348;BME280;5220;43.192;23.284;2023-04-09T11:18:06;97410.34;;;10.57;100.00
10348;BME280;5220;43.192;23.284;2023-04-09T11:20:34;97411.63;;;10.64;100.00
10348;BME280;5220;43.192;23.284;2023-04-09T11:23:01;97408.63;;;10.70;100.00
10348;BME280;5220;43.192;23.284;2023-04-09T11:25:29;97413.81;;;10.70;100.00
10348;BME280;5220;43.192;23.284;2023-04-09T11:27:56;97411.22;;;10.70;100.00
10348;BME280;5220;43.192;23.284;2023-04-09T11:30:23;97415.28;;;10.74;100.00
10348;BME280;5220;43.192;23.284;2023-04-09T11:32:51;97414.34;;;10.75;100.00
10348;BME280;5220;43.192;23.284;2023-04-09T11:35:19;97403.94;;;10.75;100.00
10348;BME280;5220;43.192;23.284;2023-04-09T11:37:47;97410.19;;;10.73;100.00
10348;BME280;5220;43.192;23.284;2023-04-09T11:40:17;97403.91;;;10.63;100.00
10348;BME280;5220;43.192;23.284;2023-04-09T11:42:45;97407.13;;;10.54;100.00
10348;BME280;5220;43.192;23.284;2023-04-09T11:45:14;97403.69;;;10.53;100.00
10348;BME280;5220;43.192;23.284;2023-04-09T11:47:42;97399.53;;;10.51;100.00
10348;BME280;5220;43.192;23.284;2023-04-09T11:50:11;97399.44;;;10.52;100.00
10348;BME280;5220;43.192;23.284;2023-04-09T11:52:38;97404.94;;;10.60;100.00
10348;BME280;5220;43.192;23.284;2023-04-09T11:55:07;97400.91;;;10.69;100.00
10348;BME280;5220;43.192;23.284;2023-04-09T11:57:39;97400.00;;;10.95;100.00
10348;BME280;5220;43.192;23.284;2023-04-09T12:00:09;97392.41;;;10.79;100.00
10348;BME280;5220;43.192;23.284;2023-04-09T12:02:38;97392.41;;;10.79;100.00
10348;BME280;5220;43.192;23.284;2023-04-09T12:05:08;97394.03;;;10.68;100.00
10348;BME280;5220;43.192;23.284;2023-04-09T12:07:37;97387.59;;;10.73;100.00
10348;BME280;5220;43.192;23.284;2023-04-09T12:10:05;97377.81;;;10.77;100.00
10348;BME280;5220;43.192;23.284;2023-04-09T12:12:39;97380.22;;;10.80;100.00
10348;BME280;5220;43.192;23.284;2023-04-09T12:15:10;97384.47;;;10.81;100.00
10348;BME280;5220;43.192;23.284;2023-04-09T12:17:37;97389.44;;;10.71;100.00
10348;BME280;5220;43.192;23.284;2023-04-09T12:20:05;97380.72;;;10.72;100.00
10348;BME280;5220;43.192;23.284;2023-04-09T12:22:35;97374.53;;;10.48;100.00
10348;BME280;5220;43.192;23.284;2023-04-09T12:25:06;97379.66;;;10.62;100.00
10348;BME280;5220;43.192;23.284;2023-04-09T12:27:32;97377.38;;;10.58;100.00
10348;BME280;5220;43.192;23.284;2023-04-09T12:29:59;97372.47;;;10.53;100.00
10348;BME280;5220;43.192;23.284;2023-04-09T12:32:26;97372.06;;;10.59;100.00
10348;BME280;5220;43.192;23.284;2023-04-09T12:34:53;97374.25;;;10.65;100.00
10348;BME280;5220;43.192;23.284;2023-04-09T12:37:20;97372.00;;;10.73;100.00
10348;BME280;5220;43.192;23.284;2023-04-09T12:39:48;97369.59;;;10.83;100.00
10348;BME280;5220;43.192;23.284;2023-04-09T12:42:15;97375.31;;;10.88;100.00
10348;BME280;5220;43.192;23.284;2023-04-09T12:44:41;97369.19;;;10.89;100.00
10348;BME280;5220;43.192;23.284;2023-04-09T12:47:08;97369.28;;;10.88;100.00
10348;BME280;5220;43.192;23.284;2023-04-09T12:49:35;97374.06;;;10.81;100.00
10348;BME280;5220;43.192;23.284;2023-04-09T12:52:02;97371.78;;;10.89;100.00
10348;BME280;5220;43.192;23.284;2023-04-09T12:54:29;97368.16;;;10.92;100.00
10348;BME280;5220;43.192;23.284;2023-04-09T12:56:57;97370.63;;;10.93;100.00
10348;BME280;5220;43.192;23.284;2023-04-09T12:59:23;97364.63;;;10.93;100.00
10348;BME280;5220;43.192;23.284;2023-04-09T13:01:50;97361.59;;;10.86;100.00